Time;durP1;ratioP1;P1;durP2;ratioP2;P2;SDS_P1;SDS_P2;PMS_P1;PMS_P2;Temp;Humidity;BMP_temperature;BMP_pressure;BME280_temperature;BME280_humidity;BME280_pressure;Samples;Min_cycle;Max_cycle;Signal;HPM_P1;HPM_P2
2023/01/11 00:00:27;;;;;;;23.95;5.10;;;;;;;;;;5044736;28;20068;-42
2023/01/11 00:02:55;;;;;;;23.65;5.85;;;;;;;;;;5042937;28;20067;-42
2023/01/11 00:05:23;;;;;;;21.65;6.22;;;;;;;;;;5039907;28;20044;-41
2023/01/11 00:07:50;;;;;;;28.55;6.43;;;;;;;;;;5043864;28;20049;-41
2023/01/11 00:10:17;;;;;;;19.52;5.63;;;;;;;;;;5040742;28;20581;-41
2023/01/11 00:12:44;;;;;;;17.98;5.90;;;;;;;;;;5029281;28;20828;-44
2023/01/11 00:15:11;;;;;;;31.33;8.45;;;;;;;;;;5042249;28;20064;-42
2023/01/11 00:17:39;;;;;;;33.00;7.57;;;;;;;;;;5016265;28;20094;-42
2023/01/11 00:20:06;;;;;;;21.50;5.63;;;;;;;;;;5041913;28;20071;-41
2023/01/11 00:22:33;;;;;;;16.60;4.75;;;;;;;;;;5041134;28;20037;-42
2023/01/11 00:25:20;;;;;;;24.38;7.78;;;;;;;;;;5041580;28;20573;-43
2023/01/11 00:27:48;;;;;;;16.58;4.88;;;;;;;;;;5044515;28;20028;-43
2023/01/11 00:30:15;;;;;;;8.93;3.50;;;;;;;;;;5042845;28;20024;-42
2023/01/11 00:32:43;;;;;;;17.92;3.88;;;;;;;;;;5025332;28;20102;-42
2023/01/11 00:35:10;;;;;;;12.75;3.38;;;;;;;;;;5042506;28;20025;-44
2023/01/11 00:37:37;;;;;;;8.35;2.80;;;;;;;;;;5035557;28;20391;-41
2023/01/11 00:40:05;;;;;;;12.60;2.75;;;;;;;;;;5034298;28;20079;-42
2023/01/11 00:48:05;;;;;;;10.20;2.67;;;;;;;;;;5034132;28;20046;-44
2023/01/11 00:50:37;;;;;;;14.55;2.45;;;;;;;;;;5044732;28;20039;-44
2023/01/11 00:53:07;;;;;;;;;;;;;;;;;;5054798;28;20489;-44
2023/01/11 00:55:34;;;;;;;10.10;3.80;;;;;;;;;;5044701;28;19940;-43
2023/01/11 00:58:01;;;;;;;8.80;2.63;;;;;;;;;;5043638;28;20025;-45
2023/01/11 01:00:28;;;;;;;10.90;2.55;;;;;;;;;;5044309;28;20057;-44
2023/01/11 01:02:56;;;;;;;6.45;2.40;;;;;;;;;;5044348;28;20137;-45
2023/01/11 01:05:23;;;;;;;5.53;2.20;;;;;;;;;;5041730;28;20021;-43
2023/01/11 01:07:50;;;;;;;14.40;2.45;;;;;;;;;;5043365;28;20049;-46
2023/01/11 01:10:17;;;;;;;15.02;1.88;;;;;;;;;;5041795;28;20104;-41
2023/01/11 01:15:30;;;;;;;16.75;2.50;;;;;;;;;;5045231;28;20091;-40
2023/01/11 01:17:57;;;;;;;11.15;2.20;;;;;;;;;;5042169;28;20052;-40
2023/01/11 01:20:25;;;;;;;15.55;3.85;;;;;;;;;;5043536;28;20051;-40
2023/01/11 01:22:52;;;;;;;25.35;4.93;;;;;;;;;;5043353;28;20052;-45
2023/01/11 01:25:19;;;;;;;18.58;4.10;;;;;;;;;;5051929;28;20052;-40
2023/01/11 01:27:46;;;;;;;34.35;4.43;;;;;;;;;;5051620;28;20029;-40
2023/01/11 01:30:13;;;;;;;24.90;4.15;;;;;;;;;;5051720;28;20021;-41
2023/01/11 01:32:40;;;;;;;24.00;3.33;;;;;;;;;;5048329;28;20037;-41
2023/01/11 01:35:07;;;;;;;21.42;3.42;;;;;;;;;;5069206;28;20043;-41
2023/01/11 01:37:34;;;;;;;25.42;3.75;;;;;;;;;;5057466;28;20056;-41
2023/01/11 01:40:01;;;;;;;27.90;3.90;;;;;;;;;;5047653;28;20035;-39
2023/01/11 01:42:28;;;;;;;21.67;4.32;;;;;;;;;;5048773;28;20109;-38
2023/01/11 01:44:55;;;;;;;22.27;4.28;;;;;;;;;;5051811;28;20020;-40
2023/01/11 01:47:42;;;;;;;21.17;4.20;;;;;;;;;;5052470;28;20024;-44
2023/01/11 01:50:30;;;;;;;18.70;4.00;;;;;;;;;;5051385;28;20021;-42
2023/01/11 01:53:00;;;;;;;16.60;3.55;;;;;;;;;;5041287;28;20038;-44
2023/01/11 01:55:32;;;;;;;21.73;3.72;;;;;;;;;;5042357;28;20025;-40
2023/01/11 01:58:00;;;;;;;19.65;3.67;;;;;;;;;;5035520;28;20037;-41
2023/01/11 02:00:27;;;;;;;47.25;4.57;;;;;;;;;;5037017;28;20064;-42
2023/01/11 02:02:55;;;;;;;28.02;4.25;;;;;;;;;;5041752;28;20443;-40
2023/01/11 02:05:22;;;;;;;23.73;4.30;;;;;;;;;;5041558;28;20033;-41
2023/01/11 02:07:50;;;;;;;16.30;3.60;;;;;;;;;;5042335;28;20119;-39
2023/01/11 02:10:21;;;;;;;18.42;4.05;;;;;;;;;;5041624;28;20025;-45
2023/01/11 02:13:03;;;;;;;28.92;3.50;;;;;;;;;;5041048;28;20021;-41
2023/01/11 02:15:31;;;;;;;19.67;3.60;;;;;;;;;;5038884;28;20043;-41
2023/01/11 02:17:58;;;;;;;14.75;3.88;;;;;;;;;;5044839;28;20021;-44
2023/01/11 02:20:29;;;;;;;18.27;3.78;;;;;;;;;;5041295;28;20055;-40
2023/01/11 02:23:15;;;;;;;30.43;3.37;;;;;;;;;;5037989;28;20451;-46
2023/01/11 02:26:00;;;;;;;16.48;3.25;;;;;;;;;;5038566;28;20279;-40
2023/01/11 02:28:33;;;;;;;25.52;3.75;;;;;;;;;;5035116;28;20021;-43
2023/01/11 02:31:25;;;;;;;20.58;3.70;;;;;;;;;;5034553;28;20476;-44
2023/01/11 02:33:55;;;;;;;24.83;4.15;;;;;;;;;;5034190;28;20500;-47
2023/01/11 02:36:28;;;;;;;22.25;3.78;;;;;;;;;;5034382;28;20088;-43
2023/01/11 02:38:58;;;;;;;15.02;3.35;;;;;;;;;;5041983;28;20024;-43
2023/01/11 02:45:00;;;;;;;17.58;3.17;;;;;;;;;;5052008;28;20116;-43
2023/01/11 02:47:11;;;;;;;22.50;3.92;;;;;;;;;;5032021;28;20071;-42
2023/01/11 02:50:00;;;;;;;39.08;4.30;;;;;;;;;;5031957;28;20383;-43
2023/01/11 02:52:39;;;;;;;40.72;4.13;;;;;;;;;;5014190;28;20531;-42
2023/01/11 02:55:08;;;;;;;33.13;4.20;;;;;;;;;;5031995;28;20029;-43
2023/01/11 02:57:38;;;;;;;24.63;3.25;;;;;;;;;;5032009;28;20025;-42
2023/01/11 03:00:05;;;;;;;14.85;3.08;;;;;;;;;;5036400;28;20474;-43
2023/01/11 03:02:32;;;;;;;15.65;2.80;;;;;;;;;;5044178;28;20029;-42
2023/01/11 03:04:59;;;;;;;16.65;3.17;;;;;;;;;;5032155;28;20072;-42
2023/01/11 03:07:41;;;;;;;29.85;3.55;;;;;;;;;;5031588;28;20133;-41
2023/01/11 03:10:11;;;;;;;25.17;3.40;;;;;;;;;;5031760;28;20029;-41
2023/01/11 03:12:56;;;;;;;36.42;3.42;;;;;;;;;;5031580;28;20022;-41
2023/01/11 03:15:41;;;;;;;21.60;2.85;;;;;;;;;;5050453;28;20028;-40
2023/01/11 03:18:22;;;;;;;14.43;2.10;;;;;;;;;;5051110;28;20022;-41
2023/01/11 03:20:55;;;;;;;25.65;2.60;;;;;;;;;;5050708;28;20032;-40
2023/01/11 03:23:24;;;;;;;13.38;2.10;;;;;;;;;;5051582;28;20151;-41
2023/01/11 03:25:51;;;;;;;9.90;1.90;;;;;;;;;;5051500;28;20055;-41
2023/01/11 03:28:30;;;;;;;9.15;1.83;;;;;;;;;;5051606;28;20436;-41
2023/01/11 03:31:23;;;;;;;7.85;1.85;;;;;;;;;;5041831;28;20074;-45
2023/01/11 03:33:51;;;;;;;4.38;1.15;;;;;;;;;;5018499;28;20037;-42
2023/01/11 03:36:28;;;;;;;3.97;1.27;;;;;;;;;;5041889;28;20029;-43
2023/01/11 03:39:04;;;;;;;5.82;1.27;;;;;;;;;;5019382;28;20080;-43
2023/01/11 03:41:34;;;;;;;6.75;1.52;;;;;;;;;;5040354;28;20510;-42
2023/01/11 03:44:02;;;;;;;4.13;1.80;;;;;;;;;;5040063;28;20472;-41
2023/01/11 03:46:31;;;;;;;6.22;1.45;;;;;;;;;;5040623;28;20494;-41
2023/01/11 03:49:06;;;;;;;8.05;1.58;;;;;;;;;;5041479;28;20036;-41
2023/01/11 03:51:35;;;;;;;9.25;2.20;;;;;;;;;;5041682;28;20021;-42
2023/01/11 03:54:04;;;;;;;11.90;1.65;;;;;;;;;;5040301;28;20021;-43
2023/01/11 03:56:44;;;;;;;7.65;1.80;;;;;;;;;;5040248;28;20563;-41
2023/01/11 03:59:11;;;;;;;8.90;1.90;;;;;;;;;;5039020;28;20379;-40
2023/01/11 04:01:38;;;;;;;10.63;2.25;;;;;;;;;;5033892;28;20029;-40
2023/01/11 04:04:05;;;;;;;8.70;2.03;;;;;;;;;;5041736;28;20099;-42
2023/01/11 04:06:33;;;;;;;7.38;1.65;;;;;;;;;;5027682;28;20029;-43
2023/01/11 04:09:00;;;;;;;13.15;1.85;;;;;;;;;;5046000;28;20091;-43
2023/01/11 04:11:27;;;;;;;11.10;1.65;;;;;;;;;;5031772;28;20017;-44
2023/01/11 04:13:54;;;;;;;16.67;2.30;;;;;;;;;;5051132;28;20025;-43
2023/01/11 04:16:21;;;;;;;12.40;2.00;;;;;;;;;;5050854;28;20508;-44
2023/01/11 04:18:48;;;;;;;12.40;2.00;;;;;;;;;;5051180;28;20058;-41
2023/01/11 04:21:15;;;;;;;4.78;1.80;;;;;;;;;;5051027;28;20025;-40
2023/01/11 04:23:42;;;;;;;5.13;1.70;;;;;;;;;;5034120;28;20120;-40
2023/01/11 04:26:09;;;;;;;5.82;1.45;;;;;;;;;;5030973;28;20029;-40
2023/01/11 04:28:36;;;;;;;4.25;1.63;;;;;;;;;;5030912;28;20029;-40
2023/01/11 04:31:03;;;;;;;4.13;1.67;;;;;;;;;;5033511;28;20022;-40
2023/01/11 04:33:30;;;;;;;3.00;1.63;;;;;;;;;;5034116;28;20128;-40
2023/01/11 04:35:57;;;;;;;4.75;1.65;;;;;;;;;;5034379;28;20036;-40
2023/01/11 04:38:25;;;;;;;3.22;1.40;;;;;;;;;;5034540;28;20110;-40
2023/01/11 04:42:17;;;;;;;5.05;1.80;;;;;;;;;;5033965;28;20574;-40
2023/01/11 04:43:39;;;;;;;6.57;1.70;;;;;;;;;;5043608;28;20030;-40
2023/01/11 04:46:06;;;;;;;4.10;1.45;;;;;;;;;;5041725;28;20029;-40
2023/01/11 04:48:33;;;;;;;5.53;1.85;;;;;;;;;;5039547;28;20439;-40
2023/01/11 04:51:00;;;;;;;4.45;1.80;;;;;;;;;;5045566;28;20395;-40
2023/01/11 04:53:27;;;;;;;4.82;1.75;;;;;;;;;;5042385;28;20029;-39
2023/01/11 04:55:54;;;;;;;3.80;1.70;;;;;;;;;;5043238;28;20061;-40
2023/01/11 04:58:21;;;;;;;6.00;1.67;;;;;;;;;;5041674;28;20068;-40
2023/01/11 05:00:47;;;;;;;7.07;2.00;;;;;;;;;;5042014;28;20379;-40
2023/01/11 05:03:14;;;;;;;4.18;1.70;;;;;;;;;;5042445;28;20013;-41
2023/01/11 05:05:41;;;;;;;2.70;1.63;;;;;;;;;;5043597;28;20356;-40
2023/01/11 05:08:08;;;;;;;5.15;1.58;;;;;;;;;;5042016;28;20084;-40
2023/01/11 05:10:35;;;;;;;4.45;1.55;;;;;;;;;;5044750;28;20025;-40
2023/01/11 05:13:02;;;;;;;3.22;1.60;;;;;;;;;;5043356;28;20033;-39
2023/01/11 05:15:29;;;;;;;4.82;1.60;;;;;;;;;;5041845;28;20075;-40
2023/01/11 05:17:56;;;;;;;5.38;1.75;;;;;;;;;;5041915;28;20044;-40
2023/01/11 05:20:23;;;;;;;4.85;1.65;;;;;;;;;;5043420;28;20055;-42
2023/01/11 05:22:50;;;;;;;2.50;1.58;;;;;;;;;;5041968;28;20510;-40
2023/01/11 05:25:17;;;;;;;4.75;1.63;;;;;;;;;;5041749;28;20494;-40
2023/01/11 05:27:44;;;;;;;7.13;2.00;;;;;;;;;;5043037;28;20028;-41
2023/01/11 05:30:11;;;;;;;4.07;1.70;;;;;;;;;;5041722;28;20487;-40
2023/01/11 05:32:38;;;;;;;5.57;1.90;;;;;;;;;;5041621;28;20025;-40
2023/01/11 05:35:08;;;;;;;5.22;1.63;;;;;;;;;;5043241;28;20048;-40
2023/01/11 05:37:35;;;;;;;5.30;1.50;;;;;;;;;;5048658;28;20044;-40
2023/01/11 05:40:02;;;;;;;5.07;2.00;;;;;;;;;;5053197;28;20024;-39
2023/01/11 05:42:29;;;;;;;8.48;2.30;;;;;;;;;;5053171;28;20017;-40
2023/01/11 05:47:41;;;;;;;4.07;1.80;;;;;;;;;;5053386;28;20048;-40
2023/01/11 05:50:08;;;;;;;4.22;1.80;;;;;;;;;;5053189;28;20095;-39
2023/01/11 05:52:35;;;;;;;4.15;1.63;;;;;;;;;;5035172;28;20391;-39
2023/01/11 05:55:02;;;;;;;4.00;1.75;;;;;;;;;;5053156;28;20017;-40
2023/01/11 05:57:29;;;;;;;3.97;1.88;;;;;;;;;;5053110;28;20112;-39
2023/01/11 05:59:56;;;;;;;3.65;1.67;;;;;;;;;;5052858;28;20033;-39
2023/01/11 06:02:23;;;;;;;4.78;2.00;;;;;;;;;;5050484;28;20167;-40
2023/01/11 06:04:50;;;;;;;6.95;2.10;;;;;;;;;;5052936;28;20052;-40
2023/01/11 06:07:17;;;;;;;3.72;1.80;;;;;;;;;;5052549;28;20035;-40
2023/01/11 06:09:44;;;;;;;5.85;2.35;;;;;;;;;;5052882;28;20471;-40
2023/01/11 06:12:11;;;;;;;3.97;2.30;;;;;;;;;;5052841;28;20028;-40
2023/01/11 06:14:37;;;;;;;4.38;2.13;;;;;;;;;;5052827;28;20053;-40
2023/01/11 06:17:04;;;;;;;4.45;2.53;;;;;;;;;;5052714;28;20029;-40
2023/01/11 06:19:31;;;;;;;4.82;2.25;;;;;;;;;;5052717;28;20026;-40
2023/01/11 06:21:58;;;;;;;3.63;2.10;;;;;;;;;;5052632;28;20021;-40
2023/01/11 06:24:25;;;;;;;4.15;2.55;;;;;;;;;;5052453;28;20052;-40
2023/01/11 06:26:52;;;;;;;8.77;3.10;;;;;;;;;;5052647;28;20036;-40
2023/01/11 06:29:19;;;;;;;8.73;3.15;;;;;;;;;;5052473;28;20021;-39
2023/01/11 06:31:46;;;;;;;9.57;3.00;;;;;;;;;;5052433;28;20500;-40
2023/01/11 06:34:13;;;;;;;9.93;3.28;;;;;;;;;;5052316;28;20021;-40
2023/01/11 06:36:40;;;;;;;9.98;3.45;;;;;;;;;;5052205;28;20411;-39
2023/01/11 06:39:07;;;;;;;7.03;3.47;;;;;;;;;;5052416;28;20075;-39
2023/01/11 06:41:34;;;;;;;6.80;2.88;;;;;;;;;;5052360;28;20025;-39
2023/01/11 06:44:01;;;;;;;8.18;3.30;;;;;;;;;;5052327;28;20032;-40
2023/01/11 06:46:28;;;;;;;6.10;2.83;;;;;;;;;;5052214;28;20047;-40
2023/01/11 06:48:55;;;;;;;8.05;2.85;;;;;;;;;;5052306;28;20029;-39
2023/01/11 06:51:22;;;;;;;7.53;2.85;;;;;;;;;;5052103;28;20029;-39
2023/01/11 06:53:48;;;;;;;6.60;2.80;;;;;;;;;;5051616;28;20154;-40
2023/01/11 06:56:17;;;;;;;6.95;2.88;;;;;;;;;;5051873;28;20145;-40
2023/01/11 06:58:44;;;;;;;7.93;2.75;;;;;;;;;;5052089;28;20414;-40
2023/01/11 07:01:11;;;;;;;5.90;2.55;;;;;;;;;;5052068;28;20028;-40
2023/01/11 07:03:40;;;;;;;7.53;2.50;;;;;;;;;;5051994;28;20024;-39
2023/01/11 07:06:07;;;;;;;5.22;2.75;;;;;;;;;;5051852;28;20079;-40
2023/01/11 07:08:34;;;;;;;7.55;2.83;;;;;;;;;;5051907;28;20136;-39
2023/01/11 07:11:01;;;;;;;5.85;3.00;;;;;;;;;;5051873;28;20025;-40
2023/01/11 07:13:28;;;;;;;7.70;2.72;;;;;;;;;;5051723;28;20048;-39
2023/01/11 07:15:56;;;;;;;7.65;2.90;;;;;;;;;;5051838;28;20033;-40
2023/01/11 07:18:23;;;;;;;6.95;2.90;;;;;;;;;;5051912;28;20048;-39
2023/01/11 07:20:51;;;;;;;10.65;3.55;;;;;;;;;;5051801;28;20049;-39
2023/01/11 07:23:18;;;;;;;8.98;3.78;;;;;;;;;;5051717;28;20479;-40
2023/01/11 07:25:45;;;;;;;9.57;4.22;;;;;;;;;;5051760;28;20032;-39
2023/01/11 07:28:12;;;;;;;8.02;4.00;;;;;;;;;;5051816;28;20049;-40
2023/01/11 07:30:39;;;;;;;10.32;4.32;;;;;;;;;;5051721;28;20047;-40
2023/01/11 07:33:09;;;;;;;9.45;3.60;;;;;;;;;;5051728;28;20025;-39
2023/01/11 07:35:36;;;;;;;15.68;4.38;;;;;;;;;;5051457;28;20425;-39
2023/01/11 07:38:06;;;;;;;9.00;3.90;;;;;;;;;;5051762;28;20079;-39
2023/01/11 07:40:35;;;;;;;9.18;4.28;;;;;;;;;;5051469;28;20036;-39
2023/01/11 07:43:13;;;;;;;12.55;4.10;;;;;;;;;;5051536;28;20033;-40
2023/01/11 07:45:42;;;;;;;10.95;4.60;;;;;;;;;;5051515;28;20033;-39
2023/01/11 07:48:09;;;;;;;11.25;5.38;;;;;;;;;;5051647;28;20055;-40
2023/01/11 07:50:37;;;;;;;16.92;5.43;;;;;;;;;;5051480;28;20025;-40
2023/01/11 07:53:04;;;;;;;12.88;5.07;;;;;;;;;;5051429;28;20505;-40
2023/01/11 07:55:31;;;;;;;10.70;4.85;;;;;;;;;;5051449;28;20055;-39
2023/01/11 07:57:59;;;;;;;13.40;5.63;;;;;;;;;;5051426;28;20162;-39
2023/01/11 08:00:26;;;;;;;13.43;5.65;;;;;;;;;;5051456;28;20115;-39
2023/01/11 08:02:53;;;;;;;13.98;5.90;;;;;;;;;;5051532;28;20033;-40
2023/01/11 08:05:20;;;;;;;14.27;6.18;;;;;;;;;;5053611;28;20471;-40
2023/01/11 08:07:47;;;;;;;10.25;5.30;;;;;;;;;;5055235;28;20487;-39
2023/01/11 08:10:14;;;;;;;8.98;4.40;;;;;;;;;;5054931;28;20536;-39
2023/01/11 08:15:31;;;;;;;10.82;4.63;;;;;;;;;;5055449;28;20079;-39
2023/01/11 08:17:58;;;;;;;9.32;4.00;;;;;;;;;;5055005;28;20083;-40
2023/01/11 08:20:28;;;;;;;11.10;3.42;;;;;;;;;;5054804;28;20033;-40
2023/01/11 08:22:55;;;;;;;9.00;3.55;;;;;;;;;;5054979;28;20032;-39
2023/01/11 08:25:23;;;;;;;7.30;3.35;;;;;;;;;;5054866;28;20029;-40
2023/01/11 08:27:49;;;;;;;9.98;3.90;;;;;;;;;;5054920;28;20053;-40
2023/01/11 08:30:17;;;;;;;8.38;3.70;;;;;;;;;;5054764;28;20036;-40
2023/01/11 08:32:43;;;;;;;9.15;3.67;;;;;;;;;;5054836;28;20029;-40
2023/01/11 08:35:10;;;;;;;8.00;3.42;;;;;;;;;;5054745;28;20028;-39
2023/01/11 08:37:37;;;;;;;9.07;3.75;;;;;;;;;;5054613;28;20051;-39
2023/01/11 08:40:05;;;;;;;7.93;3.28;;;;;;;;;;5054653;28;20112;-40
2023/01/11 08:42:32;;;;;;;9.68;3.03;;;;;;;;;;5054638;28;20029;-39
2023/01/11 08:45:00;;;;;;;12.73;3.97;;;;;;;;;;5050800;28;20029;-40
2023/01/11 08:47:27;;;;;;;7.85;3.80;;;;;;;;;;5034643;28;20029;-39
2023/01/11 08:49:54;;;;;;;9.07;3.95;;;;;;;;;;5034565;28;20550;-39
2023/01/11 08:52:21;;;;;;;7.95;3.33;;;;;;;;;;5034592;28;20025;-40
2023/01/11 08:54:49;;;;;;;7.88;3.42;;;;;;;;;;5034572;28;20025;-40
2023/01/11 08:57:16;;;;;;;8.27;3.45;;;;;;;;;;5034366;28;20041;-40
2023/01/11 08:59:43;;;;;;;8.40;3.30;;;;;;;;;;5034368;28;20495;-39
2023/01/11 09:02:12;;;;;;;5.43;2.95;;;;;;;;;;5034475;28;20057;-40
2023/01/11 09:04:39;;;;;;;9.43;3.75;;;;;;;;;;5034342;28;20092;-40
2023/01/11 09:07:06;;;;;;;9.70;3.67;;;;;;;;;;5034122;28;20026;-40
2023/01/11 09:09:33;;;;;;;10.30;3.20;;;;;;;;;;5034194;28;20029;-40
2023/01/11 09:12:01;;;;;;;9.65;3.72;;;;;;;;;;5032943;28;20037;-40
2023/01/11 09:14:29;;;;;;;7.13;3.40;;;;;;;;;;5033996;28;20033;-39
2023/01/11 09:16:56;;;;;;;8.55;3.53;;;;;;;;;;5033571;28;20586;-39
2023/01/11 09:19:23;;;;;;;7.07;3.28;;;;;;;;;;5033994;28;20030;-40
2023/01/11 09:21:51;;;;;;;7.65;3.67;;;;;;;;;;5033863;28;20037;-39
2023/01/11 09:24:17;;;;;;;5.93;3.00;;;;;;;;;;5033901;28;20029;-40
2023/01/11 09:26:44;;;;;;;7.57;3.55;;;;;;;;;;5033949;28;20037;-39
2023/01/11 09:29:12;;;;;;;7.70;3.10;;;;;;;;;;5033900;28;20132;-40
2023/01/11 09:31:39;;;;;;;8.63;3.22;;;;;;;;;;5032415;28;20124;-39
2023/01/11 09:34:09;;;;;;;9.40;3.30;;;;;;;;;;5033603;28;20484;-40
2023/01/11 09:36:38;;;;;;;8.30;2.97;;;;;;;;;;5033542;28;20096;-40
2023/01/11 09:39:09;;;;;;;6.47;2.88;;;;;;;;;;5033639;28;20048;-39
2023/01/11 09:41:42;;;;;;;6.95;2.83;;;;;;;;;;5033544;28;20032;-39
2023/01/11 09:44:15;;;;;;;6.82;3.05;;;;;;;;;;5033559;28;20029;-39
2023/01/11 09:46:50;;;;;;;9.75;2.90;;;;;;;;;;5033425;28;20033;-40
2023/01/11 09:49:30;;;;;;;6.78;2.72;;;;;;;;;;5033503;28;20047;-39
2023/01/11 09:52:17;;;;;;;7.50;2.78;;;;;;;;;;5033346;28;20104;-39
2023/01/11 09:54:46;;;;;;;6.47;2.67;;;;;;;;;;5033248;28;20038;-40
2023/01/11 09:57:19;;;;;;;6.50;2.88;;;;;;;;;;5033133;28;20049;-40
2023/01/11 10:00:16;;;;;;;8.07;2.50;;;;;;;;;;5033122;28;20033;-39
2023/01/11 10:02:55;;;;;;;5.95;2.70;;;;;;;;;;5024616;28;20038;-39
2023/01/11 10:05:36;;;;;;;5.30;2.40;;;;;;;;;;5033107;28;20033;-40
2023/01/11 10:08:12;;;;;;;4.70;2.42;;;;;;;;;;5031667;28;20502;-40
2023/01/11 10:10:49;;;;;;;6.15;2.80;;;;;;;;;;5032872;28;20022;-40
2023/01/11 10:13:44;;;;;;;6.13;2.50;;;;;;;;;;5033062;28;20025;-39
2023/01/11 10:16:11;;;;;;;6.63;2.35;;;;;;;;;;5032842;28;20048;-39
2023/01/11 10:18:41;;;;;;;5.30;2.42;;;;;;;;;;5032831;28;20041;-39
2023/01/11 10:21:14;;;;;;;8.00;2.58;;;;;;;;;;5032773;28;20062;-39
2023/01/11 10:24:01;;;;;;;13.90;2.20;;;;;;;;;;5032893;28;20071;-39
2023/01/11 10:26:34;;;;;;;4.47;2.20;;;;;;;;;;5032504;28;20112;-40
2023/01/11 10:32:21;;;;;;;5.15;2.13;;;;;;;;;;5032711;28;20060;-39
2023/01/11 10:35:28;;;;;;;5.25;1.80;;;;;;;;;;5032643;28;20061;-39
2023/01/11 10:40:34;;;;;;;4.80;1.70;;;;;;;;;;5032711;28;20556;-40
2023/01/11 10:43:11;;;;;;;4.53;1.80;;;;;;;;;;5032265;28;20034;-39
2023/01/11 10:45:58;;;;;;;7.85;1.48;;;;;;;;;;5032331;28;20034;-40
2023/01/11 10:48:29;;;;;;;2.50;1.55;;;;;;;;;;5025281;28;20138;-39
2023/01/11 10:51:14;;;;;;;5.97;1.65;;;;;;;;;;5032376;28;20360;-39
2023/01/11 10:53:47;;;;;;;8.25;1.50;;;;;;;;;;5032291;28;20033;-39
2023/01/11 10:56:17;;;;;;;4.07;1.30;;;;;;;;;;5032071;28;20487;-39
2023/01/11 10:59:02;;;;;;;8.75;1.52;;;;;;;;;;5032383;28;20029;-39
2023/01/11 11:01:38;;;;;;;8.65;1.35;;;;;;;;;;5031995;28;20104;-39
2023/01/11 11:04:14;;;;;;;10.88;1.20;;;;;;;;;;5032178;28;20029;-38
2023/01/11 11:06:47;;;;;;;12.65;2.13;;;;;;;;;;5032153;28;20025;-38
2023/01/11 11:09:14;;;;;;;8.65;1.58;;;;;;;;;;5031930;28;20099;-39
2023/01/11 11:11:45;;;;;;;8.57;1.23;;;;;;;;;;5032141;28;20056;-38
2023/01/11 11:14:19;;;;;;;10.95;0.95;;;;;;;;;;5032039;28;20037;-39
2023/01/11 11:17:01;;;;;;;4.97;1.17;;;;;;;;;;5032003;28;20476;-39
2023/01/11 11:19:31;;;;;;;7.77;0.97;;;;;;;;;;5031958;28;20129;-39
2023/01/11 11:21:59;;;;;;;5.57;0.88;;;;;;;;;;5032010;28;20031;-39
2023/01/11 11:24:33;;;;;;;6.05;0.85;;;;;;;;;;5032011;28;20021;-39
2023/01/11 11:27:08;;;;;;;8.48;1.00;;;;;;;;;;5032028;28;20037;-39
2023/01/11 11:29:41;;;;;;;10.60;1.17;;;;;;;;;;5031846;28;20021;-39
2023/01/11 11:32:13;;;;;;;8.57;1.23;;;;;;;;;;5031918;28;20075;-39
2023/01/11 11:34:39;;;;;;;;;;;;;;;;;;5032409;28;20021;-39
2023/01/11 11:37:06;;;;;;;3.65;0.98;;;;;;;;;;5031884;28;19917;-39
2023/01/11 11:39:33;;;;;;;6.20;1.13;;;;;;;;;;5034386;28;20030;-39
2023/01/11 11:42:15;;;;;;;10.15;1.00;;;;;;;;;;5035840;28;20045;-39
2023/01/11 11:44:41;;;;;;;4.15;0.88;;;;;;;;;;5035988;28;20099;-39
2023/01/11 11:47:16;;;;;;;8.43;1.13;;;;;;;;;;5035768;28;20076;-39
2023/01/11 11:49:43;;;;;;;5.72;0.70;;;;;;;;;;5035745;28;20026;-39
2023/01/11 11:52:15;;;;;;;6.80;0.93;;;;;;;;;;5035710;28;20100;-39
2023/01/11 11:54:55;;;;;;;6.20;1.23;;;;;;;;;;5035642;28;20030;-39
2023/01/11 11:57:31;;;;;;;4.60;0.82;;;;;;;;;;5035312;28;20048;-39
2023/01/11 12:00:04;;;;;;;48.53;2.70;;;;;;;;;;5035351;28;20024;-40
2023/01/11 12:02:32;;;;;;;8.82;1.55;;;;;;;;;;5035495;28;20135;-39
2023/01/11 12:05:00;;;;;;;9.25;1.10;;;;;;;;;;5035454;28;20515;-39
2023/01/11 12:07:29;;;;;;;19.85;1.25;;;;;;;;;;5035292;28;20041;-39
2023/01/11 12:09:56;;;;;;;6.25;0.70;;;;;;;;;;5035321;28;20043;-39
2023/01/11 12:12:23;;;;;;;11.63;0.95;;;;;;;;;;5035392;28;20101;-38
2023/01/11 12:15:19;;;;;;;26.00;2.22;;;;;;;;;;5035344;28;20387;-39
2023/01/11 12:17:47;;;;;;;6.43;1.00;;;;;;;;;;5026597;28;20072;-39
2023/01/11 12:20:23;;;;;;;7.70;1.30;;;;;;;;;;5035107;28;20021;-40
2023/01/11 12:22:50;;;;;;;12.85;1.13;;;;;;;;;;5035174;28;20037;-39
2023/01/11 12:25:17;;;;;;;8.73;1.00;;;;;;;;;;5035175;28;20076;-39
2023/01/11 12:27:44;;;;;;;7.38;1.00;;;;;;;;;;5035094;28;20034;-39
2023/01/11 12:30:16;;;;;;;14.93;1.10;;;;;;;;;;5032555;28;20443;-39
2023/01/11 12:33:01;;;;;;;13.67;1.43;;;;;;;;;;5036826;28;20554;-39
2023/01/11 12:35:50;;;;;;;14.00;1.05;;;;;;;;;;5045259;28;20350;-38
2023/01/11 12:38:23;;;;;;;12.05;1.30;;;;;;;;;;5051431;28;20040;-39
2023/01/11 12:41:01;;;;;;;7.20;1.00;;;;;;;;;;5052213;28;20041;-39
2023/01/11 12:43:46;;;;;;;8.57;1.20;;;;;;;;;;5054508;28;20103;-39
2023/01/11 12:46:20;;;;;;;19.60;1.60;;;;;;;;;;5046357;28;20032;-39
2023/01/11 12:49:03;;;;;;;16.40;1.80;;;;;;;;;;5034498;28;20040;-39
2023/01/11 12:51:46;;;;;;;10.27;1.20;;;;;;;;;;5051694;28;20033;-39
2023/01/11 12:54:24;;;;;;;11.55;1.00;;;;;;;;;;5043289;28;20047;-41
2023/01/11 12:56:54;;;;;;;22.20;1.65;;;;;;;;;;5044457;28;20041;-40
2023/01/11 12:59:27;;;;;;;15.95;1.88;;;;;;;;;;5036469;28;20440;-41
2023/01/11 13:01:56;;;;;;;15.98;1.15;;;;;;;;;;5042062;28;20021;-40
2023/01/11 13:04:26;;;;;;;10.05;0.95;;;;;;;;;;5043084;28;20075;-40
2023/01/11 13:07:01;;;;;;;13.27;1.50;;;;;;;;;;5040985;28;20021;-41
2023/01/11 13:09:34;;;;;;;33.50;1.55;;;;;;;;;;5041983;28;20090;-41
2023/01/11 13:12:04;;;;;;;25.77;1.52;;;;;;;;;;5036679;28;20415;-41
2023/01/11 13:14:34;;;;;;;22.33;1.60;;;;;;;;;;5033879;28;20548;-41
2023/01/11 13:17:08;;;;;;;19.77;1.45;;;;;;;;;;5033627;28;20585;-42
2023/01/11 13:19:38;;;;;;;13.65;1.42;;;;;;;;;;5034032;28;20476;-42
2023/01/11 13:22:10;;;;;;;11.77;1.20;;;;;;;;;;5034151;28;20061;-41
2023/01/11 13:24:37;;;;;;;;;;;;;;;;;;5034470;28;20025;-42
2023/01/11 13:27:05;;;;;;;17.08;1.70;;;;;;;;;;5033751;28;19955;-42
2023/01/11 13:29:37;;;;;;;12.32;1.20;;;;;;;;;;5033818;28;20102;-40
2023/01/11 13:32:06;;;;;;;13.32;1.35;;;;;;;;;;5033978;28;20025;-41
2023/01/11 13:34:39;;;;;;;18.17;1.55;;;;;;;;;;5033911;28;20017;-41
2023/01/11 13:37:26;;;;;;;15.57;1.63;;;;;;;;;;5036069;28;20114;-41
2023/01/11 13:40:16;;;;;;;12.35;1.40;;;;;;;;;;5042460;28;20017;-41
2023/01/11 13:43:03;;;;;;;15.52;1.60;;;;;;;;;;5018379;28;20045;-41
2023/01/11 13:45:38;;;;;;;25.33;1.67;;;;;;;;;;5030101;28;20045;-41
2023/01/11 13:48:08;;;;;;;15.55;1.30;;;;;;;;;;5054441;28;20025;-41
2023/01/11 13:50:39;;;;;;;10.82;1.30;;;;;;;;;;5072092;28;20074;-41
2023/01/11 13:53:12;;;;;;;19.67;1.55;;;;;;;;;;5052838;28;20033;-41
2023/01/11 13:55:39;;;;;;;19.05;1.73;;;;;;;;;;5052939;28;20070;-41
2023/01/11 13:58:13;;;;;;;22.00;1.88;;;;;;;;;;5052212;28;20127;-41
2023/01/11 14:00:43;;;;;;;10.25;1.15;;;;;;;;;;5052989;28;20550;-41
2023/01/11 14:03:31;;;;;;;14.60;1.30;;;;;;;;;;5034597;28;20454;-41
2023/01/11 14:06:04;;;;;;;15.77;1.65;;;;;;;;;;5052266;28;20025;-41
2023/01/11 14:08:49;;;;;;;20.42;1.50;;;;;;;;;;5051956;28;20056;-41
2023/01/11 14:11:16;;;;;;;22.88;1.63;;;;;;;;;;5052657;28;20064;-42
2023/01/11 14:14:13;;;;;;;17.38;1.65;;;;;;;;;;5052451;28;20474;-40
2023/01/11 14:16:43;;;;;;;17.17;1.35;;;;;;;;;;5014337;28;20041;-41
2023/01/11 14:19:10;;;;;;;13.77;1.55;;;;;;;;;;5052442;28;20021;-41
2023/01/11 14:21:49;;;;;;;13.57;1.17;;;;;;;;;;5052165;28;20033;-47
2023/01/11 14:24:16;;;;;;;16.77;1.40;;;;;;;;;;5052092;28;20048;-42
2023/01/11 14:26:58;;;;;;;16.38;1.55;;;;;;;;;;5051801;28;20475;-42
2023/01/11 14:29:37;;;;;;;21.67;2.80;;;;;;;;;;5052060;28;20032;-43
2023/01/11 14:32:10;;;;;;;26.60;3.10;;;;;;;;;;5052047;28;20469;-45
2023/01/11 14:34:55;;;;;;;16.38;2.08;;;;;;;;;;5052100;28;20051;-43
2023/01/11 14:37:54;;;;;;;41.10;2.60;;;;;;;;;;5049864;28;20061;-42
2023/01/11 14:40:42;;;;;;;12.32;1.73;;;;;;;;;;4997885;28;20033;-43
2023/01/11 14:43:15;;;;;;;14.20;1.83;;;;;;;;;;5051834;28;20029;-51
2023/01/11 14:45:45;;;;;;;20.92;2.33;;;;;;;;;;5052107;28;20029;-45
2023/01/11 14:48:25;;;;;;;46.67;3.42;;;;;;;;;;5052038;28;20037;-45
2023/01/11 14:50:55;;;;;;;15.82;5.68;;;;;;;;;;5051873;28;20033;-44
2023/01/11 14:53:26;;;;;;;29.38;2.03;;;;;;;;;;5052207;28;20427;-47
2023/01/11 14:55:53;;;;;;;10.02;1.58;;;;;;;;;;5051671;28;20120;-48
2023/01/11 14:58:23;;;;;;;12.48;1.95;;;;;;;;;;5050759;28;20028;-48
2023/01/11 15:00:50;;;;;;;7.40;1.13;;;;;;;;;;5051121;28;20064;-43
2023/01/11 15:03:19;;;;;;;19.90;3.28;;;;;;;;;;5051360;28;20051;-42
2023/01/11 15:05:49;;;;;;;11.88;2.05;;;;;;;;;;5051534;28;20063;-43
2023/01/11 15:08:21;;;;;;;20.00;2.13;;;;;;;;;;5050956;28;20083;-45
2023/01/11 15:10:57;;;;;;;17.35;1.42;;;;;;;;;;5051437;28;20112;-43
2023/01/11 15:13:44;;;;;;;16.48;1.90;;;;;;;;;;5050871;28;20029;-43
2023/01/11 15:19:05;;;;;;;17.35;1.35;;;;;;;;;;5051275;28;20040;-42
2023/01/11 15:21:34;;;;;;;15.50;1.55;;;;;;;;;;5051728;28;20044;-42
2023/01/11 15:24:01;;;;;;;29.33;2.55;;;;;;;;;;5050894;28;20018;-44
2023/01/11 15:26:28;;;;;;;12.20;1.13;;;;;;;;;;5051595;28;20025;-44